Time;durP1;ratioP1;P1;durP2;ratioP2;P2;SDS_P1;SDS_P2;PMS_P1;PMS_P2;Temp;Humidity;BMP_temperature;BMP_pressure;BME280_temperature;BME280_humidity;BME280_pressure;Samples;Min_cycle;Max_cycle;Signal;HPM_P1;HPM_P2
2022/06/05 00:02:21;;;;;;;16.07;14.37;;;20.10;47.10;;;;;;5054772;28;20438;-40
2022/06/05 00:04:58;;;;;;;18.40;15.97;;;20.10;47.30;;;;;;5054637;28;20833;-40
2022/06/05 00:07:36;;;;;;;19.27;15.80;;;20.00;47.20;;;;;;5054639;28;20392;-39
2022/06/05 00:10:12;;;;;;;15.70;14.00;;;20.00;47.30;;;;;;5054590;28;20433;-40
2022/06/05 00:12:51;;;;;;;17.13;15.40;;;19.90;47.40;;;;;;5054415;28;20549;-37
2022/06/05 00:15:17;;;;;;;15.90;14.30;;;19.90;47.60;;;;;;5054597;28;20181;-37
2022/06/05 00:17:43;;;;;;;17.50;15.60;;;19.80;47.60;;;;;;5054397;28;20169;-37
2022/06/05 00:20:10;;;;;;;21.03;17.50;;;19.80;47.90;;;;;;5054435;28;20168;-39
2022/06/05 00:22:38;;;;;;;16.40;13.57;;;19.80;47.50;;;;;;5054290;28;20247;-38
2022/06/05 00:25:08;;;;;;;18.10;16.20;;;19.80;47.50;;;;;;5054312;28;20177;-39
2022/06/05 00:27:39;;;;;;;16.85;14.15;;;19.80;47.30;;;;;;5054618;28;20415;-37
2022/06/05 00:30:12;;;;;;;16.77;15.02;;;19.80;47.40;;;;;;5054770;28;20166;-39
2022/06/05 00:32:46;;;;;;;16.90;15.15;;;19.80;47.30;;;;;;5054296;28;20201;-40
2022/06/05 00:35:16;;;;;;;15.95;14.25;;;19.80;47.30;;;;;;5054110;28;20203;-39
2022/06/05 00:38:14;;;;;;;15.47;13.83;;;19.70;47.30;;;;;;5054308;28;20165;-37
2022/06/05 00:41:06;;;;;;;14.63;13.20;;;19.70;47.30;;;;;;5054057;28;20801;-38
2022/06/05 00:43:32;;;;;;;20.10;15.67;;;19.60;47.10;;;;;;5054101;28;20254;-37
2022/06/05 00:45:58;;;;;;;19.03;16.70;;;19.60;47.30;;;;;;5054042;28;20465;-37
2022/06/05 00:48:24;;;;;;;14.33;12.63;;;19.50;47.40;;;;;;5054044;28;20177;-37
2022/06/05 00:50:50;;;;;;;14.83;13.27;;;19.40;47.50;;;;;;5053860;28;20200;-38
2022/06/05 00:53:16;;;;;;;13.87;12.37;;;19.40;47.50;;;;;;5054188;28;20399;-37
2022/06/05 00:55:48;;;;;;;14.50;13.00;;;19.40;47.40;;;;;;5053650;28;20910;-37
2022/06/05 00:58:15;;;;;;;16.80;15.20;;;19.50;47.50;;;;;;5053935;28;20153;-39
2022/06/05 01:00:46;;;;;;;14.80;13.40;;;19.50;47.40;;;;;;5053785;28;20188;-40
2022/06/05 01:03:13;;;;;;;15.10;13.70;;;19.40;47.10;;;;;;5053839;28;20165;-39
2022/06/05 01:05:39;;;;;;;15.00;13.50;;;19.40;47.10;;;;;;5053793;28;20205;-40
2022/06/05 01:08:07;;;;;;;15.18;13.40;;;19.40;47.10;;;;;;5053317;28;20196;-39
2022/06/05 01:11:22;;;;;;;12.65;11.45;;;19.40;47.20;;;;;;5053366;28;20725;-40
2022/06/05 01:13:56;;;;;;;14.43;13.02;;;19.30;47.30;;;;;;5048714;28;20194;-39
2022/06/05 01:16:30;;;;;;;15.40;13.80;;;19.30;47.40;;;;;;5053615;28;20168;-39
2022/06/05 01:19:18;;;;;;;14.45;12.50;;;19.20;47.30;;;;;;5053266;28;20177;-37
2022/06/05 01:21:51;;;;;;;16.48;14.60;;;19.20;47.40;;;;;;5053518;28;20189;-40
2022/06/05 01:24:51;;;;;;;14.75;13.20;;;19.10;47.60;;;;;;5053764;28;20181;-38
2022/06/05 01:27:22;;;;;;;16.20;12.73;;;19.10;47.60;;;;;;5052078;28;20250;-39
2022/06/05 01:29:58;;;;;;;14.80;13.30;;;19.10;47.60;;;;;;5053231;28;20173;-39
2022/06/05 01:32:49;;;;;;;14.57;13.10;;;19.10;47.60;;;;;;5053106;28;21046;-37
2022/06/05 01:35:50;;;;;;;15.07;13.57;;;19.10;47.50;;;;;;5042145;28;20235;-37
2022/06/05 01:38:22;;;;;;;15.63;12.82;;;19.10;47.40;;;;;;5021709;28;20184;-38
2022/06/05 01:40:52;;;;;;;14.85;13.35;;;19.10;47.20;;;;;;5053078;28;20220;-40
2022/06/05 01:43:25;;;;;;;15.47;13.90;;;19.00;47.20;;;;;;5053345;28;20157;-38
2022/06/05 01:45:57;;;;;;;15.30;13.80;;;19.00;47.10;;;;;;5052981;28;20388;-40
2022/06/05 01:48:33;;;;;;;13.88;12.43;;;19.00;47.20;;;;;;5052855;28;20174;-39
2022/06/05 01:51:03;;;;;;;14.57;13.23;;;18.90;47.40;;;;;;5052839;28;20195;-39
2022/06/05 01:53:41;;;;;;;15.25;13.80;;;18.90;47.40;;;;;;5052769;28;20162;-37
2022/06/05 01:56:55;;;;;;;14.60;13.05;;;18.80;47.30;;;;;;5052768;28;20181;-40
2022/06/05 01:59:29;;;;;;;14.98;13.50;;;18.80;47.40;;;;;;5018758;28;20585;-39
2022/06/05 02:01:58;;;;;;;15.73;13.63;;;18.70;47.50;;;;;;5052498;28;20192;-39
2022/06/05 02:04:39;;;;;;;15.88;13.75;;;18.70;47.50;;;;;;5052260;28;20185;-39
2022/06/05 02:07:32;;;;;;;17.85;14.98;;;18.70;47.50;;;;;;5052545;28;20173;-40
2022/06/05 02:10:09;;;;;;;17.92;13.43;;;18.60;47.70;;;;;;5052455;28;20161;-40
2022/06/05 02:12:36;;;;;;;16.15;14.40;;;18.60;47.80;;;;;;5052353;28;20207;-39
2022/06/05 02:15:04;;;;;;;13.98;12.50;;;18.60;48.00;;;;;;5052487;28;20180;-39
2022/06/05 02:17:31;;;;;;;17.50;13.45;;;18.60;47.80;;;;;;5052265;28;20220;-39
2022/06/05 02:19:59;;;;;;;18.63;15.20;;;18.70;48.00;;;;;;5051603;28;20178;-39
2022/06/05 02:22:41;;;;;;;16.75;13.02;;;18.60;47.90;;;;;;5052138;28;20227;-39
2022/06/05 02:25:08;;;;;;;15.15;13.25;;;18.70;48.00;;;;;;5052155;28;20239;-39
2022/06/05 02:27:34;;;;;;;15.88;14.02;;;18.70;47.80;;;;;;5052054;28;20177;-39
2022/06/05 02:30:00;;;;;;;15.03;13.43;;;18.70;47.80;;;;;;5052411;28;20227;-39
2022/06/05 02:32:40;;;;;;;15.57;13.15;;;18.70;47.80;;;;;;5052223;28;20447;-40
2022/06/05 02:35:27;;;;;;;15.15;13.48;;;18.70;47.70;;;;;;5052226;28;20177;-40
2022/06/05 02:38:08;;;;;;;18.90;16.10;;;18.70;47.70;;;;;;5052295;28;20247;-39
2022/06/05 02:40:55;;;;;;;15.27;13.27;;;18.70;47.60;;;;;;5051897;28;20207;-40
2022/06/05 02:43:33;;;;;;;14.35;12.73;;;18.60;47.50;;;;;;5052096;28;20168;-40
2022/06/05 02:46:01;;;;;;;14.07;12.30;;;18.60;47.70;;;;;;5051885;28;20177;-40
2022/06/05 02:48:35;;;;;;;18.08;13.52;;;18.50;47.80;;;;;;5051819;28;20174;-39
2022/06/05 02:51:13;;;;;;;16.35;14.18;;;18.50;47.90;;;;;;5051836;28;20185;-39
2022/06/05 02:53:52;;;;;;;14.95;12.57;;;18.50;47.80;;;;;;5052129;28;20173;-40
2022/06/05 02:56:19;;;;;;;15.98;14.38;;;18.50;47.70;;;;;;5051898;28;20177;-40
2022/06/05 02:58:48;;;;;;;15.68;14.02;;;18.50;47.80;;;;;;5052249;28;20192;-38
2022/06/05 03:03:59;;;;;;;16.17;13.73;;;18.40;47.60;;;;;;5051719;28;20259;-39
2022/06/05 03:06:28;;;;;;;17.80;14.30;;;18.40;47.60;;;;;;5051896;28;20174;-39
2022/06/05 03:08:53;;;;;;;16.42;12.30;;;18.40;47.60;;;;;;5051785;28;20943;-39
2022/06/05 03:11:19;;;;;;;17.10;14.27;;;18.40;47.50;;;;;;5051531;28;20201;-39
2022/06/05 03:13:45;;;;;;;14.50;13.10;;;18.40;47.60;;;;;;5051655;28;20188;-39
2022/06/05 03:16:10;;;;;;;15.77;14.13;;;18.40;47.70;;;;;;5051632;28;20176;-39
2022/06/05 03:18:38;;;;;;;15.03;13.53;;;18.30;47.80;;;;;;5051918;28;20533;-38
2022/06/05 03:21:04;;;;;;;14.02;12.52;;;18.30;47.70;;;;;;5051639;28;20212;-37
2022/06/05 03:23:30;;;;;;;14.67;13.13;;;18.30;47.70;;;;;;5051641;28;20212;-37
2022/06/05 03:25:56;;;;;;;18.75;14.63;;;18.30;47.70;;;;;;5051349;28;20404;-38
2022/06/05 03:28:22;;;;;;;20.97;15.27;;;18.30;47.60;;;;;;5051654;28;20263;-37
2022/06/05 03:30:47;;;;;;;16.27;14.07;;;18.30;47.70;;;;;;5051792;28;20268;-38
2022/06/05 03:33:13;;;;;;;16.90;15.10;;;18.30;47.80;;;;;;5055240;28;20442;-38
2022/06/05 03:35:42;;;;;;;20.20;16.20;;;18.30;48.00;;;;;;5055240;28;20169;-37
2022/06/05 03:38:09;;;;;;;19.02;16.30;;;18.20;48.00;;;;;;5055261;28;20183;-37
2022/06/05 03:40:35;;;;;;;17.20;15.40;;;18.20;48.00;;;;;;5054895;28;20169;-38
2022/06/05 03:43:01;;;;;;;17.90;14.20;;;18.20;48.00;;;;;;5055207;28;20649;-38
2022/06/05 03:45:27;;;;;;;17.00;14.65;;;18.30;48.00;;;;;;5055341;28;20181;-40
2022/06/05 03:47:53;;;;;;;17.73;14.27;;;18.30;47.90;;;;;;5054847;28;20177;-39
2022/06/05 03:50:19;;;;;;;20.77;16.33;;;18.30;48.00;;;;;;5055043;28;20181;-39
2022/06/05 03:52:45;;;;;;;21.80;17.37;;;18.30;47.90;;;;;;5054821;28;20209;-39
2022/06/05 03:55:15;;;;;;;19.52;14.73;;;18.30;48.00;;;;;;5055075;28;20406;-37
2022/06/05 03:57:41;;;;;;;19.75;14.88;;;18.30;47.90;;;;;;5054637;28;20211;-37
2022/06/05 04:00:07;;;;;;;23.13;18.10;;;18.40;47.90;;;;;;5055128;28;20205;-39
2022/06/05 04:02:34;;;;;;;21.10;16.08;;;18.40;48.10;;;;;;5054615;28;20216;-39
2022/06/05 04:05:00;;;;;;;17.60;15.50;;;18.40;48.20;;;;;;5054568;28;20170;-39
2022/06/05 04:07:26;;;;;;;19.45;16.20;;;18.50;48.40;;;;;;5036864;28;20181;-39
2022/06/05 04:09:52;;;;;;;17.10;14.90;;;18.50;48.60;;;;;;5054744;28;20180;-39
2022/06/05 04:12:18;;;;;;;17.07;13.13;;;18.50;48.70;;;;;;5054855;28;20752;-39
2022/06/05 04:14:43;;;;;;;20.60;16.30;;;18.60;48.60;;;;;;5054782;28;20683;-39
2022/06/05 04:17:11;;;;;;;18.23;14.10;;;18.60;48.60;;;;;;5054823;28;20649;-38
2022/06/05 04:19:37;;;;;;;16.35;14.38;;;18.70;48.80;;;;;;5054630;28;20209;-39
2022/06/05 04:22:04;;;;;;;15.90;14.40;;;18.70;48.90;;;;;;5054689;28;20216;-39
2022/06/05 04:24:30;;;;;;;17.92;15.90;;;18.70;48.90;;;;;;5054295;28;20177;-39
2022/06/05 04:26:56;;;;;;;15.88;14.40;;;18.80;48.90;;;;;;5054334;28;20177;-39
2022/06/05 04:29:22;;;;;;;16.45;12.80;;;18.90;49.00;;;;;;5054277;28;20173;-39
2022/06/05 04:31:49;;;;;;;16.43;14.73;;;19.00;49.00;;;;;;5054380;28;20343;-39
2022/06/05 04:34:18;;;;;;;15.70;13.20;;;19.00;49.00;;;;;;5054392;28;20454;-39
2022/06/05 04:36:45;;;;;;;14.88;13.32;;;19.10;49.00;;;;;;5054096;28;20189;-37
2022/06/05 04:39:12;;;;;;;16.15;14.13;;;19.20;48.90;;;;;;5054082;28;20271;-37
2022/06/05 04:41:39;;;;;;;15.52;12.68;;;19.20;48.90;;;;;;5054060;28;20216;-36
2022/06/05 04:44:06;;;;;;;15.18;13.38;;;19.30;49.00;;;;;;5053364;28;20179;-37
2022/06/05 04:46:33;;;;;;;15.40;13.85;;;19.40;48.90;;;;;;5054279;28;20177;-37
2022/06/05 04:48:59;;;;;;;15.15;13.55;;;19.50;48.90;;;;;;5053917;28;20165;-37
2022/06/05 04:51:25;;;;;;;14.73;12.88;;;19.50;48.90;;;;;;5053756;28;20669;-37
2022/06/05 04:53:53;;;;;;;15.52;13.75;;;19.60;48.80;;;;;;5054191;28;20208;-37
2022/06/05 04:56:24;;;;;;;16.42;14.02;;;19.70;48.80;;;;;;5053752;28;20202;-39
2022/06/05 04:58:51;;;;;;;16.17;13.98;;;19.70;48.90;;;;;;5053823;28;20149;-39
2022/06/05 05:01:23;;;;;;;16.45;14.70;;;19.80;48.90;;;;;;5054086;28;20252;-40
2022/06/05 05:03:53;;;;;;;18.77;16.88;;;19.90;48.90;;;;;;5053693;28;20211;-39
2022/06/05 05:06:19;;;;;;;15.85;14.32;;;20.00;49.50;;;;;;5053570;28;20200;-39
2022/06/05 05:08:45;;;;;;;14.57;13.05;;;20.00;48.70;;;;;;5053898;28;20208;-39
2022/06/05 05:11:11;;;;;;;15.30;13.73;;;20.00;48.80;;;;;;5053757;28;20193;-39
2022/06/05 05:13:37;;;;;;;19.40;14.07;;;20.10;48.90;;;;;;5053667;28;20626;-39
2022/06/05 05:16:04;;;;;;;15.70;13.33;;;20.20;49.00;;;;;;5053412;28;20407;-37
2022/06/05 05:18:29;;;;;;;16.27;14.65;;;20.30;49.00;;;;;;5053351;28;20891;-39
2022/06/05 05:21:04;;;;;;;16.63;14.53;;;20.30;48.80;;;;;;5053186;28;20193;-39
2022/06/05 05:23:30;;;;;;;13.40;12.00;;;20.40;49.40;;;;;;5053574;28;20176;-37
2022/06/05 05:26:04;;;;;;;16.70;14.88;;;20.50;48.60;;;;;;5053242;28;20231;-39
2022/06/05 05:28:30;;;;;;;15.83;13.10;;;20.40;48.50;;;;;;5055066;28;20179;-39
2022/06/05 05:30:56;;;;;;;15.70;14.03;;;20.40;48.60;;;;;;5053623;28;20520;-37
2022/06/05 05:33:22;;;;;;;14.77;13.37;;;20.30;48.60;;;;;;5053413;28;20193;-36
2022/06/05 05:35:47;;;;;;;16.60;13.63;;;20.30;48.60;;;;;;5052807;28;20256;-36
2022/06/05 05:38:13;;;;;;;16.20;14.17;;;20.40;48.90;;;;;;5052989;28;20216;-37
2022/06/05 05:43:23;;;;;;;14.13;12.63;;;20.30;49.10;;;;;;5053114;28;20232;-36
2022/06/05 05:45:49;;;;;;;14.90;13.37;;;20.30;49.10;;;;;;5052800;28;20423;-36
2022/06/05 05:48:15;;;;;;;15.30;13.80;;;20.40;49.30;;;;;;5052858;28;20169;-37
2022/06/05 05:50:45;;;;;;;15.70;13.37;;;20.50;49.60;;;;;;5035424;28;20957;-39
2022/06/05 05:53:11;;;;;;;15.63;13.98;;;20.60;49.40;;;;;;5052748;28;20661;-37
2022/06/05 05:55:37;;;;;;;16.05;14.30;;;20.70;49.50;;;;;;5052104;28;20180;-39
2022/06/05 05:58:03;;;;;;;17.77;15.37;;;20.80;49.30;;;;;;5052510;28;20803;-40
2022/06/05 06:00:29;;;;;;;15.50;13.90;;;20.80;49.10;;;;;;5052798;28;20498;-39
2022/06/05 06:02:55;;;;;;;15.47;13.00;;;20.90;49.70;;;;;;5052675;28;20934;-39
2022/06/05 06:05:21;;;;;;;15.20;13.60;;;20.90;49.20;;;;;;5052466;28;20173;-39
2022/06/05 06:07:46;;;;;;;15.17;13.63;;;21.00;49.10;;;;;;5052543;28;20645;-37
2022/06/05 06:10:13;;;;;;;14.77;13.27;;;21.00;48.90;;;;;;5052488;28;20997;-38
2022/06/05 06:12:39;;;;;;;15.33;13.83;;;21.10;48.80;;;;;;5053090;28;20201;-39
2022/06/05 06:15:06;;;;;;;15.70;13.63;;;21.20;48.70;;;;;;5052824;28;20415;-40
2022/06/05 06:17:31;;;;;;;17.97;14.70;;;21.20;48.60;;;;;;5052994;28;20413;-39
2022/06/05 06:19:57;;;;;;;16.07;14.40;;;21.30;48.90;;;;;;5052639;28;20412;-37
2022/06/05 06:22:23;;;;;;;16.70;14.73;;;21.40;48.60;;;;;;5052345;28;20219;-37
2022/06/05 06:24:49;;;;;;;17.30;15.50;;;21.50;48.70;;;;;;5053354;28;20161;-39
2022/06/05 06:27:15;;;;;;;18.03;13.80;;;21.60;48.60;;;;;;5053794;28;20212;-39
2022/06/05 06:29:41;;;;;;;14.80;13.40;;;21.60;48.30;;;;;;5052132;28;20260;-39
2022/06/05 06:32:07;;;;;;;13.90;12.50;;;21.70;48.30;;;;;;5052030;28;20483;-39
2022/06/05 06:34:33;;;;;;;13.87;12.60;;;21.80;48.20;;;;;;5052141;28;20450;-40
2022/06/05 06:36:58;;;;;;;14.87;13.30;;;21.90;48.50;;;;;;5052101;28;20406;-39
2022/06/05 06:39:24;;;;;;;16.50;14.43;;;22.10;49.50;;;;;;5052166;28;20261;-40
2022/06/05 06:41:50;;;;;;;16.30;13.40;;;22.30;48.70;;;;;;5051712;28;20711;-40
2022/06/05 06:44:17;;;;;;;14.80;13.30;;;22.40;48.20;;;;;;5051823;28;20208;-40
2022/06/05 06:46:43;;;;;;;16.07;14.40;;;22.50;48.10;;;;;;5052014;28;20169;-40
2022/06/05 06:49:09;;;;;;;17.43;13.90;;;22.70;48.40;;;;;;5052281;28;20926;-39
2022/06/05 06:51:34;;;;;;;15.63;14.17;;;22.80;47.70;;;;;;5051839;28;20458;-39
2022/06/05 06:54:00;;;;;;;16.43;14.73;;;22.80;47.20;;;;;;5051972;28;20404;-40
2022/06/05 06:56:30;;;;;;;15.90;13.70;;;22.80;47.20;;;;;;5051850;28;20165;-39
2022/06/05 06:58:57;;;;;;;15.50;14.00;;;22.90;47.60;;;;;;5051974;28;20469;-37
2022/06/05 07:01:23;;;;;;;15.20;13.30;;;23.00;47.40;;;;;;5051702;28;20942;-38
2022/06/05 07:03:49;;;;;;;17.30;15.70;;;23.00;47.60;;;;;;5051804;28;20400;-39
2022/06/05 07:06:16;;;;;;;16.03;14.43;;;23.20;47.40;;;;;;5035245;28;20567;-39
2022/06/05 07:08:43;;;;;;;15.17;13.30;;;23.30;47.30;;;;;;5055781;28;20427;-37
2022/06/05 07:11:11;;;;;;;15.87;13.73;;;23.40;47.40;;;;;;5055628;28;20427;-37
2022/06/05 07:13:37;;;;;;;11.50;10.40;;;23.60;47.30;;;;;;5056093;28;20411;-37
2022/06/05 07:16:06;;;;;;;15.43;13.83;;;23.80;47.10;;;;;;5055616;28;20490;-37
2022/06/05 07:18:32;;;;;;;14.87;13.47;;;23.90;46.90;;;;;;5055623;28;20473;-38
2022/06/05 07:21:05;;;;;;;12.50;11.40;;;24.00;46.80;;;;;;5055561;28;20911;-37
2022/06/05 07:23:31;;;;;;;11.43;10.23;;;24.20;46.50;;;;;;5055347;28;20549;-37
2022/06/05 07:25:57;;;;;;;11.83;10.77;;;24.40;46.60;;;;;;5055902;28;20430;-37
2022/06/05 07:28:23;;;;;;;13.60;10.07;;;24.60;46.60;;;;;;5055762;28;20408;-37
2022/06/05 07:30:49;;;;;;;10.77;8.93;;;24.70;46.30;;;;;;5055426;28;20276;-38
2022/06/05 07:33:17;;;;;;;10.90;8.17;;;24.90;44.90;;;;;;5055361;28;20580;-38
2022/06/05 07:35:43;;;;;;;10.67;8.87;;;25.00;45.20;;;;;;5055345;28;20404;-37
2022/06/05 07:38:12;;;;;;;9.03;8.13;;;25.10;45.40;;;;;;5055183;28;20404;-38
2022/06/05 07:40:40;;;;;;;7.60;6.80;;;25.30;43.90;;;;;;5055176;28;20795;-37
2022/06/05 07:43:09;;;;;;;7.07;6.37;;;25.50;42.60;;;;;;5055256;28;20399;-38
2022/06/05 07:45:35;;;;;;;6.90;6.20;;;25.60;42.70;;;;;;5055329;28;20414;-38
2022/06/05 07:48:00;;;;;;;7.27;6.57;;;25.70;41.40;;;;;;5055059;28;20407;-38
2022/06/05 07:50:26;;;;;;;9.10;6.07;;;25.80;41.00;;;;;;5055025;28;20430;-37
2022/06/05 07:55:36;;;;;;;7.30;6.60;;;26.00;40.90;;;;;;5055116;28;20192;-37
2022/06/05 07:58:02;;;;;;;8.03;6.13;;;26.10;41.00;;;;;;5055082;28;20427;-37
2022/06/05 08:00:29;;;;;;;5.10;4.70;;;26.20;39.90;;;;;;5037062;28;20184;-38
2022/06/05 08:02:54;;;;;;;6.17;5.53;;;26.30;40.10;;;;;;5055019;28;20197;-38
2022/06/05 08:05:20;;;;;;;6.50;5.70;;;26.50;38.40;;;;;;5054598;28;20484;-38
2022/06/05 08:07:46;;;;;;;5.93;5.33;;;26.50;38.10;;;;;;5054951;28;20173;-37
2022/06/05 08:10:12;;;;;;;6.43;5.70;;;26.60;37.30;;;;;;5054691;28;20202;-38
2022/06/05 08:12:38;;;;;;;6.40;5.80;;;26.70;37.90;;;;;;5054623;28;20239;-38
2022/06/05 08:15:10;;;;;;;6.03;5.47;;;26.80;37.90;;;;;;5054532;28;20407;-38
2022/06/05 08:17:36;;;;;;;7.63;4.80;;;26.90;36.60;;;;;;5053511;28;20173;-38
2022/06/05 08:20:04;;;;;;;5.13;4.63;;;27.00;37.50;;;;;;5054537;28;20943;-38
2022/06/05 08:22:30;;;;;;;5.50;4.60;;;27.10;37.50;;;;;;5054369;28;20432;-38
2022/06/05 08:24:56;;;;;;;5.90;5.30;;;27.20;36.80;;;;;;5054653;28;20425;-38
2022/06/05 08:27:24;;;;;;;5.90;5.23;;;27.30;36.90;;;;;;5054498;28;20420;-38
2022/06/05 08:29:52;;;;;;;4.50;4.07;;;27.50;37.20;;;;;;5054386;28;20185;-38
2022/06/05 08:32:18;;;;;;;6.27;5.70;;;27.50;37.10;;;;;;5054335;28;20455;-38
2022/06/05 08:34:44;;;;;;;6.57;4.60;;;27.60;35.40;;;;;;5054042;28;20404;-39
2022/06/05 08:43:05;;;;;;;4.93;4.53;;;27.80;36.00;;;;;;5054188;28;20524;-38
2022/06/05 08:45:58;;;;;;;6.10;5.50;;;27.90;35.10;;;;;;5053583;28;20416;-38
2022/06/05 08:48:37;;;;;;;5.50;4.90;;;28.00;36.50;;;;;;5054067;28;20403;-38
2022/06/05 08:51:33;;;;;;;4.63;4.23;;;28.10;36.40;;;;;;5053893;28;20427;-38
2022/06/05 08:54:06;;;;;;;5.70;5.00;;;28.20;36.30;;;;;;5046884;28;20431;-38
2022/06/05 08:56:43;;;;;;;4.90;4.50;;;28.20;35.60;;;;;;5053942;28;20400;-38
2022/06/05 08:59:29;;;;;;;5.23;4.73;;;28.30;33.10;;;;;;5054705;28;20908;-39
2022/06/05 09:02:25;;;;;;;6.20;5.17;;;28.30;34.50;;;;;;5055153;28;20426;-38
2022/06/05 09:05:01;;;;;;;5.60;5.07;;;28.30;35.00;;;;;;5040541;28;20411;-38
2022/06/05 09:07:34;;;;;;;4.87;4.43;;;28.40;33.50;;;;;;5053680;28;20406;-38
2022/06/05 09:10:13;;;;;;;7.43;6.40;;;28.30;34.50;;;;;;5053644;28;20744;-39
2022/06/05 09:12:47;;;;;;;6.43;5.80;;;28.50;34.90;;;;;;5053734;28;20461;-39
2022/06/05 09:15:19;;;;;;;5.70;5.10;;;28.50;35.30;;;;;;5053320;28;20399;-38
2022/06/05 09:17:53;;;;;;;6.50;5.90;;;28.70;34.30;;;;;;5053377;28;20453;-38
2022/06/05 09:20:22;;;;;;;5.83;5.33;;;28.70;34.60;;;;;;5053345;28;20430;-39
2022/06/05 09:22:57;;;;;;;5.03;4.53;;;28.80;33.60;;;;;;5053390;28;20428;-38
2022/06/05 09:25:26;;;;;;;5.83;5.33;;;28.90;34.10;;;;;;5053533;28;20384;-38
2022/06/05 09:28:17;;;;;;;5.13;4.63;;;28.90;33.10;;;;;;5053369;28;21002;-38
2022/06/05 09:31:02;;;;;;;13.00;11.23;;;28.90;33.90;;;;;;5053218;28;20450;-38
2022/06/05 09:33:36;;;;;;;7.20;6.60;;;28.90;33.80;;;;;;5053090;28;20862;-39
2022/06/05 09:36:08;;;;;;;19.40;14.03;;;28.90;33.70;;;;;;5053285;28;20389;-38
2022/06/05 09:38:50;;;;;;;13.20;11.80;;;29.00;34.50;;;;;;5052940;28;20912;-38
2022/06/05 09:41:37;;;;;;;5.30;4.80;;;29.10;34.60;;;;;;5052876;28;20573;-38
2022/06/05 09:44:25;;;;;;;5.17;4.67;;;29.20;34.50;;;;;;5052807;28;20408;-38
2022/06/05 09:47:03;;;;;;;5.83;5.33;;;29.20;33.70;;;;;;5053054;28;20418;-39
2022/06/05 09:49:40;;;;;;;5.00;4.50;;;29.30;33.80;;;;;;5052830;28;20408;-38
2022/06/05 09:52:13;;;;;;;5.20;4.80;;;29.40;33.20;;;;;;5052975;28;20807;-38
2022/06/05 09:54:44;;;;;;;5.20;4.70;;;29.50;34.10;;;;;;5052953;28;20749;-38
2022/06/05 10:00:38;;;;;;;5.53;4.30;;;29.70;32.30;;;;;;4997679;28;20416;-39
2022/06/05 10:03:11;;;;;;;6.43;4.77;;;29.70;32.90;;;;;;5052835;28;20502;-38
2022/06/05 10:05:40;;;;;;;5.23;4.73;;;29.80;32.10;;;;;;5053153;28;20399;-38
2022/06/05 10:08:21;;;;;;;4.50;4.10;;;29.90;31.80;;;;;;5052841;28;20419;-38
2022/06/05 10:10:51;;;;;;;5.27;4.80;;;30.00;33.20;;;;;;5052773;28;20436;-38
2022/06/05 10:13:31;;;;;;;4.43;4.00;;;30.10;32.60;;;;;;5052840;28;20452;-38
2022/06/05 10:16:04;;;;;;;4.67;4.27;;;30.30;33.00;;;;;;5053689;28;20495;-39
2022/06/05 10:18:53;;;;;;;5.37;4.87;;;30.40;32.90;;;;;;5053227;28;20389;-38
2022/06/05 10:21:22;;;;;;;5.10;4.60;;;30.50;32.10;;;;;;5053569;28;20443;-38
2022/06/05 10:24:03;;;;;;;4.63;4.13;;;30.60;31.70;;;;;;5053128;28;20900;-39
2022/06/05 10:26:32;;;;;;;4.37;3.97;;;30.70;31.60;;;;;;5053356;28;20411;-39
2022/06/05 10:29:16;;;;;;;5.83;4.97;;;30.70;31.70;;;;;;5052845;28;20435;-38
2022/06/05 10:31:52;;;;;;;4.70;4.20;;;30.80;31.30;;;;;;5052946;28;20451;-39
2022/06/05 10:34:43;;;;;;;4.23;3.90;;;30.80;31.10;;;;;;5052757;28;20935;-39
2022/06/05 10:37:21;;;;;;;5.77;5.27;;;30.80;30.00;;;;;;5023895;28;20415;-39
2022/06/05 10:40:06;;;;;;;4.30;3.90;;;30.80;29.40;;;;;;5052891;28;20407;-39
2022/06/05 10:42:36;;;;;;;4.30;3.90;;;30.90;29.80;;;;;;5034113;28;20461;-39
2022/06/05 10:45:28;;;;;;;5.17;4.37;;;30.90;29.40;;;;;;5052526;28;20450;-39
2022/06/05 10:48:11;;;;;;;4.17;3.70;;;31.00;29.90;;;;;;5049299;28;20465;-39
2022/06/05 10:50:44;;;;;;;4.37;3.97;;;31.10;27.80;;;;;;5052888;28;20475;-39
2022/06/05 10:53:41;;;;;;;4.67;3.63;;;31.00;28.00;;;;;;5052975;28;20534;-39
2022/06/05 10:56:27;;;;;;;9.83;3.97;;;31.10;27.80;;;;;;5053191;28;20423;-39
2022/06/05 10:59:05;;;;;;;4.17;3.77;;;31.10;27.50;;;;;;5052950;28;20799;-39
2022/06/05 11:02:15;;;;;;;3.90;3.40;;;31.10;27.70;;;;;;5053005;28;20414;-39
2022/06/05 11:05:08;;;;;;;3.90;3.27;;;31.20;28.10;;;;;;5024128;28;20489;-39
2022/06/05 11:07:55;;;;;;;4.10;3.70;;;31.20;25.80;;;;;;5053100;28;20404;-38
2022/06/05 11:14:03;;;;;;;4.77;4.37;;;31.30;27.50;;;;;;5012003;28;20467;-39
2022/06/05 11:16:54;;;;;;;3.70;3.40;;;31.50;28.10;;;;;;5026019;28;20447;-39
2022/06/05 11:19:41;;;;;;;13.70;4.10;;;31.60;26.50;;;;;;5053065;28;20752;-38
2022/06/05 11:22:13;;;;;;;5.10;4.60;;;31.60;26.40;;;;;;5035558;28;20439;-39
2022/06/05 11:24:48;;;;;;;4.50;4.10;;;31.70;27.10;;;;;;5052988;28;20895;-39
2022/06/05 11:27:29;;;;;;;3.83;3.50;;;31.90;26.50;;;;;;5052729;28;21093;-39
2022/06/05 11:30:21;;;;;;;4.57;4.17;;;31.90;26.20;;;;;;5053148;28;20438;-38
2022/06/05 11:33:24;;;;;;;4.90;4.20;;;31.80;25.40;;;;;;5046182;28;20469;-39
2022/06/05 11:36:09;;;;;;;5.53;5.03;;;31.80;25.50;;;;;;5052477;28;20942;-39
2022/06/05 11:39:02;;;;;;;4.20;3.80;;;31.80;26.90;;;;;;5053300;28;20927;-39
2022/06/05 11:41:36;;;;;;;4.50;4.10;;;31.90;26.90;;;;;;5045276;28;20463;-39
2022/06/05 11:44:27;;;;;;;4.07;3.40;;;31.90;26.90;;;;;;5053551;28;20393;-39
2022/06/05 11:47:29;;;;;;;4.70;3.67;;;31.90;26.70;;;;;;5052787;28;20384;-38
2022/06/05 11:50:28;;;;;;;3.80;3.50;;;31.90;25.90;;;;;;5045023;28;20479;-39
2022/06/05 11:53:03;;;;;;;3.53;3.23;;;31.90;26.10;;;;;;5055021;28;20465;-39
2022/06/05 11:55:46;;;;;;;3.70;3.40;;;31.90;26.50;;;;;;5056903;28;20399;-39
2022/06/05 11:58:28;;;;;;;4.03;3.70;;;31.90;26.20;;;;;;5055978;28;20528;-40
2022/06/05 12:01:03;;;;;;;4.33;3.90;;;31.90;26.00;;;;;;5054801;28;20435;-40
2022/06/05 12:03:41;;;;;;;4.60;4.20;;;31.80;25.90;;;;;;5054777;28;20419;-39
2022/06/05 12:06:57;;;;;;;3.90;3.23;;;31.90;26.40;;;;;;5054701;28;20390;-40
2022/06/05 12:09:41;;;;;;;4.73;4.33;;;32.00;26.70;;;;;;5041400;28;20514;-40
2022/06/05 12:12:33;;;;;;;3.73;3.30;;;32.00;27.10;;;;;;5054697;28;20542;-40
2022/06/05 12:15:33;;;;;;;4.70;4.30;;;32.10;27.00;;;;;;5054544;28;20927;-40
2022/06/05 12:18:07;;;;;;;4.90;4.40;;;32.10;25.80;;;;;;5054568;28;20911;-40
2022/06/05 12:20:53;;;;;;;3.50;3.20;;;32.10;25.90;;;;;;5054462;28;20483;-40
2022/06/05 12:23:42;;;;;;;4.73;4.30;;;32.00;26.50;;;;;;5054917;28;20384;-39
2022/06/05 12:26:23;;;;;;;3.40;3.10;;;31.90;25.40;;;;;;5055889;28;20486;-40
2022/06/05 12:29:20;;;;;;;4.40;4.00;;;31.80;25.20;;;;;;5055836;28;20843;-39
2022/06/05 12:32:14;;;;;;;4.97;4.07;;;31.70;25.80;;;;;;5050722;28;20492;-39
2022/06/05 12:34:50;;;;;;;4.73;4.27;;;31.60;26.10;;;;;;5031906;28;20451;-39
2022/06/05 12:37:23;;;;;;;6.37;4.77;;;31.50;25.80;;;;;;5055540;28;20431;-39
2022/06/05 12:39:52;;;;;;;4.27;3.87;;;31.50;25.40;;;;;;5055494;28;20404;-39
2022/06/05 12:42:23;;;;;;;4.20;3.53;;;31.40;26.50;;;;;;5055069;28;20447;-38
2022/06/05 12:44:52;;;;;;;4.20;3.80;;;31.40;26.50;;;;;;5055187;28;20411;-39
2022/06/05 12:47:36;;;;;;;4.20;3.80;;;31.40;26.20;;;;;;5055669;28;20396;-39
2022/06/05 12:50:17;;;;;;;3.83;3.53;;;31.50;27.40;;;;;;5055800;28;20903;-39
2022/06/05 12:53:10;;;;;;;5.37;4.03;;;31.60;24.50;;;;;;5055259;28;20451;-39
2022/06/05 12:55:57;;;;;;;4.80;3.60;;;31.70;26.10;;;;;;5055187;28;20419;-39
2022/06/05 12:58:52;;;;;;;4.60;3.90;;;31.90;26.00;;;;;;5055011;28;20408;-39
2022/06/05 13:01:23;;;;;;;4.27;3.80;;;31.90;25.90;;;;;;5049451;28;20438;-39
2022/06/05 13:04:01;;;;;;;4.30;3.90;;;31.90;25.20;;;;;;5054579;28;20388;-39
2022/06/05 13:06:48;;;;;;;5.33;3.90;;;31.80;25.60;;;;;;5054948;28;20922;-39
2022/06/05 13:09:32;;;;;;;3.87;3.57;;;31.80;25.70;;;;;;5055159;28;20395;-39
2022/06/05 13:12:12;;;;;;;3.40;3.10;;;31.90;23.80;;;;;;5055368;28;20808;-39
2022/06/05 13:15:10;;;;;;;3.40;3.10;;;31.90;24.30;;;;;;5054578;28;20392;-39
2022/06/05 13:18:04;;;;;;;2.90;2.70;;;32.00;24.20;;;;;;5054803;28;20422;-39
2022/06/05 13:20:30;;;;;;;3.30;3.00;;;32.00;23.50;;;;;;5054439;28;20407;-39
2022/06/05 13:23:06;;;;;;;3.20;2.90;;;32.00;23.50;;;;;;5053654;28;20423;-39
2022/06/05 13:25:55;;;;;;;3.73;3.40;;;32.00;23.60;;;;;;5053929;28;20629;-39
2022/06/05 13:28:31;;;;;;;3.70;3.27;;;32.10;24.30;;;;;;5054032;28;20412;-39
2022/06/05 13:31:27;;;;;;;3.67;3.37;;;32.20;24.20;;;;;;5053984;28;20424;-39